createdAt,value
2022-09-12T00:00:25.057Z,1013.63
2022-09-12T00:01:25.039Z,1013.64
2022-09-12T00:02:25.043Z,1013.68
2022-09-12T00:03:24.980Z,1013.66
2022-09-12T00:04:24.984Z,1013.64
2022-09-12T00:05:24.943Z,1013.63
2022-09-12T00:06:24.930Z,1013.60
2022-09-12T00:07:24.966Z,1013.59
2022-09-12T00:08:24.890Z,1013.64
2022-09-12T00:09:24.867Z,1013.61
2022-09-12T00:10:24.850Z,1013.58
2022-09-12T00:11:24.822Z,1013.60
2022-09-12T00:12:24.809Z,1013.57
2022-09-12T00:13:24.813Z,1013.57
2022-09-12T00:14:24.773Z,1013.54
2022-09-12T00:15:24.758Z,1013.52
2022-09-12T00:16:24.836Z,1013.51
2022-09-12T00:17:24.731Z,1013.52
2022-09-12T00:18:24.691Z,1013.51
2022-09-12T00:19:24.677Z,1013.52
2022-09-12T00:20:24.655Z,1013.46
2022-09-12T00:21:24.646Z,1013.48
2022-09-12T00:22:24.612Z,1013.51
2022-09-12T00:23:24.618Z,1013.50
2022-09-12T00:24:24.594Z,1013.48
2022-09-12T00:25:24.553Z,1013.47
2022-09-12T00:26:24.537Z,1013.47
2022-09-12T00:27:24.517Z,1013.44
2022-09-12T00:28:24.498Z,1013.39
2022-09-12T00:29:24.481Z,1013.46
2022-09-12T00:30:24.473Z,1013.39
2022-09-12T00:31:24.467Z,1013.44
2022-09-12T00:32:24.416Z,1013.48
2022-09-12T00:33:24.403Z,1013.45
2022-09-12T00:34:24.430Z,1013.48
2022-09-12T00:35:24.382Z,1013.48
2022-09-12T00:36:24.348Z,1013.46
2022-09-12T00:37:24.322Z,1013.45
2022-09-12T00:38:24.351Z,1013.45
2022-09-12T00:39:24.287Z,1013.46
2022-09-12T00:40:24.282Z,1013.46
2022-09-12T00:41:24.246Z,1013.41
2022-09-12T00:42:24.223Z,1013.42
2022-09-12T00:43:24.206Z,1013.43
2022-09-12T00:44:24.215Z,1013.40
2022-09-12T00:45:24.204Z,1013.43
2022-09-12T00:46:24.150Z,1013.43
2022-09-12T00:47:24.130Z,1013.43
2022-09-12T00:48:24.111Z,1013.35
2022-09-12T00:49:24.086Z,1013.41
2022-09-12T00:50:24.094Z,1013.36
2022-09-12T00:51:24.047Z,1013.34
2022-09-12T00:52:24.039Z,1013.35
2022-09-12T00:53:24.013Z,1013.33
2022-09-12T00:54:23.992Z,1013.29
2022-09-12T00:55:23.996Z,1013.29
2022-09-12T00:56:23.958Z,1013.21
2022-09-12T00:57:23.947Z,1013.25
2022-09-12T00:58:23.918Z,1013.26
2022-09-12T00:59:23.899Z,1013.23
2022-09-12T01:00:23.881Z,1013.24
2022-09-12T01:01:23.918Z,1013.25
2022-09-12T01:02:23.882Z,1013.22
2022-09-12T01:03:23.936Z,1013.18
2022-09-12T01:04:23.798Z,1013.17
2022-09-12T01:05:23.779Z,1013.16
2022-09-12T01:06:23.836Z,1013.20
2022-09-12T01:07:23.736Z,1013.21
2022-09-12T01:08:23.719Z,1013.24
2022-09-12T01:09:23.713Z,1013.26
2022-09-12T01:10:23.681Z,1013.22
2022-09-12T01:11:23.660Z,1013.23
2022-09-12T01:12:23.750Z,1013.21
2022-09-12T01:13:23.618Z,1013.26
2022-09-12T01:14:23.609Z,1013.22
2022-09-12T01:15:23.584Z,1013.26
2022-09-12T01:16:23.587Z,1013.21
2022-09-12T01:17:23.546Z,1013.20
2022-09-12T01:18:23.569Z,1013.26
2022-09-12T01:19:23.522Z,1013.24
2022-09-12T01:20:23.484Z,1013.25
2022-09-12T01:21:23.467Z,1013.25
2022-09-12T01:22:23.449Z,1013.22
2022-09-12T01:23:23.440Z,1013.22
2022-09-12T01:24:23.426Z,1013.19
2022-09-12T01:25:23.408Z,1013.20
2022-09-12T01:26:23.367Z,1013.20
2022-09-12T01:27:23.356Z,1013.21
2022-09-12T01:28:23.329Z,1013.21
2022-09-12T01:29:23.330Z,1013.23
2022-09-12T01:30:23.292Z,1013.18
2022-09-12T01:31:23.271Z,1013.18
2022-09-12T01:32:23.291Z,1013.16
2022-09-12T01:33:23.232Z,1013.16
2022-09-12T01:34:23.232Z,1013.18
2022-09-12T01:35:23.213Z,1013.14
2022-09-12T01:36:23.171Z,1013.12
2022-09-12T01:37:23.161Z,1013.10
2022-09-12T01:38:23.133Z,1013.09
2022-09-12T01:39:23.115Z,1013.09
2022-09-12T01:40:23.112Z,1013.08
2022-09-12T01:41:23.103Z,1013.11
2022-09-12T01:42:23.056Z,1013.07
2022-09-12T01:43:23.038Z,1013.07
2022-09-12T01:44:23.038Z,1013.09
2022-09-12T01:45:23.060Z,1013.01
2022-09-12T01:46:22.977Z,1013.05
2022-09-12T01:47:22.979Z,1013.03
2022-09-12T01:48:22.940Z,1012.97
2022-09-12T01:49:22.922Z,1013.00
2022-09-12T01:50:22.904Z,1012.99
2022-09-12T01:51:22.885Z,1012.98
2022-09-12T01:52:22.884Z,1012.96
2022-09-12T01:53:22.844Z,1012.97
2022-09-12T01:54:22.825Z,1012.97
2022-09-12T01:55:22.809Z,1012.94
2022-09-12T01:56:22.787Z,1012.94
2022-09-12T01:57:22.789Z,1012.92
2022-09-12T01:58:22.749Z,1012.97
2022-09-12T01:59:22.730Z,1012.99
2022-09-12T02:00:22.706Z,1012.97
2022-09-12T02:01:22.728Z,1012.97
2022-09-12T02:02:22.697Z,1012.95
2022-09-12T02:03:22.669Z,1012.97
2022-09-12T02:04:22.635Z,1012.96
2022-09-12T02:05:22.614Z,1012.97
2022-09-12T02:06:22.592Z,1012.95
2022-09-12T02:07:22.575Z,1012.92
2022-09-12T02:08:22.570Z,1012.94
2022-09-12T02:09:22.556Z,1012.89
2022-09-12T02:10:22.510Z,1012.88
2022-09-12T02:11:22.496Z,1012.87
2022-09-12T02:12:22.473Z,1012.89
2022-09-12T02:13:22.469Z,1012.87
2022-09-12T02:14:22.433Z,1012.87
2022-09-12T02:15:22.414Z,1012.84
2022-09-12T02:16:22.446Z,1012.86
2022-09-12T02:17:22.374Z,1012.84
2022-09-12T02:18:22.377Z,1012.85
2022-09-12T02:19:22.359Z,1012.83
2022-09-12T02:20:44.447Z,1012.85
2022-09-12T02:21:22.298Z,1012.85
2022-09-12T02:22:22.286Z,1012.84
2022-09-12T02:23:22.263Z,1012.85
2022-09-12T02:24:22.263Z,1012.86
2022-09-12T02:25:22.220Z,1012.84
2022-09-12T02:26:22.225Z,1012.84
2022-09-12T02:27:22.185Z,1012.82
2022-09-12T02:28:22.171Z,1012.84
2022-09-12T02:29:22.148Z,1012.83
2022-09-12T02:30:22.209Z,1012.86
2022-09-12T02:31:22.111Z,1012.85
2022-09-12T02:32:22.094Z,1012.84
2022-09-12T02:33:22.071Z,1012.86
2022-09-12T02:34:22.069Z,1012.81
2022-09-12T02:35:22.034Z,1012.84
2022-09-12T02:36:22.028Z,1012.81
2022-09-12T02:37:21.986Z,1012.82
2022-09-12T02:38:22.030Z,1012.78
2022-09-12T02:39:21.949Z,1012.76
2022-09-12T02:40:21.959Z,1012.72
2022-09-12T02:41:21.929Z,1012.73
2022-09-12T02:42:21.902Z,1012.73
2022-09-12T02:43:21.970Z,1012.71
2022-09-12T02:44:21.858Z,1012.76
2022-09-12T02:45:21.855Z,1012.75
2022-09-12T02:46:21.814Z,1012.74
2022-09-12T02:47:21.796Z,1012.78
2022-09-12T02:48:21.778Z,1012.72
2022-09-12T02:49:21.786Z,1012.73
2022-09-12T02:50:21.747Z,1012.71
2022-09-12T02:51:23.837Z,1012.69
2022-09-12T02:52:21.726Z,1012.67
2022-09-12T02:53:21.680Z,1012.67
2022-09-12T02:54:21.660Z,1012.67
2022-09-12T02:55:21.642Z,1012.64
2022-09-12T02:56:21.644Z,1012.62
2022-09-12T02:57:23.060Z,1012.66
2022-09-12T02:58:21.585Z,1012.65
2022-09-12T02:59:21.567Z,1012.66
2022-09-12T03:00:21.540Z,1012.65
2022-09-12T03:01:21.561Z,1012.61
2022-09-12T03:02:21.556Z,1012.63
2022-09-12T03:03:21.493Z,1012.63
2022-09-12T03:04:21.475Z,1012.61
2022-09-12T03:05:21.482Z,1012.61
2022-09-12T03:06:21.425Z,1012.60
2022-09-12T03:07:21.415Z,1012.60
2022-09-12T03:08:21.398Z,1012.58
2022-09-12T03:09:21.369Z,1012.53
2022-09-12T03:10:21.373Z,1012.56
2022-09-12T03:11:21.330Z,1012.54
2022-09-12T03:12:21.308Z,1012.59
2022-09-12T03:13:21.291Z,1012.56
2022-09-12T03:14:21.276Z,1012.54
2022-09-12T03:15:21.279Z,1012.57
2022-09-12T03:16:21.270Z,1012.57
2022-09-12T03:17:21.210Z,1012.57
2022-09-12T03:18:21.194Z,1012.58
2022-09-12T03:19:21.174Z,1012.57
2022-09-12T03:20:21.160Z,1012.59
2022-09-12T03:21:21.192Z,1012.58
2022-09-12T03:22:21.137Z,1012.54
2022-09-12T03:23:21.096Z,1012.58
2022-09-12T03:24:21.081Z,1012.60
2022-09-12T03:25:21.065Z,1012.60
2022-09-12T03:26:21.057Z,1012.59
2022-09-12T03:27:21.034Z,1012.64
2022-09-12T03:28:21.001Z,1012.60
2022-09-12T03:29:20.986Z,1012.60
2022-09-12T03:30:20.997Z,1012.64
2022-09-12T03:31:20.987Z,1012.62
2022-09-12T03:32:20.927Z,1012.64
2022-09-12T03:33:20.903Z,1012.64
2022-09-12T03:34:20.884Z,1012.61
2022-09-12T03:35:23.037Z,1012.59
2022-09-12T03:36:20.849Z,1012.59
2022-09-12T03:37:20.840Z,1012.61
2022-09-12T03:38:20.809Z,1012.60
2022-09-12T03:39:20.784Z,1012.62
2022-09-12T03:40:20.768Z,1012.65
2022-09-12T03:41:20.743Z,1012.64
2022-09-12T03:42:20.766Z,1012.61
2022-09-12T03:43:20.707Z,1012.60
2022-09-12T03:44:20.690Z,1012.55
2022-09-12T03:45:20.667Z,1012.56
2022-09-12T03:46:20.653Z,1012.56
2022-09-12T03:47:20.630Z,1012.56
2022-09-12T03:48:20.623Z,1012.52
2022-09-12T03:49:20.622Z,1012.53
2022-09-12T03:50:20.569Z,1012.53
2022-09-12T03:51:20.556Z,1012.56
2022-09-12T03:52:20.535Z,1012.56
2022-09-12T03:53:20.513Z,1012.54
2022-09-12T03:54:20.510Z,1012.54
2022-09-12T03:55:20.475Z,1012.57
2022-09-12T03:56:20.457Z,1012.53
2022-09-12T03:57:20.440Z,1012.51
2022-09-12T03:58:20.442Z,1012.52
2022-09-12T03:59:20.414Z,1012.52
2022-09-12T04:00:20.387Z,1012.51
2022-09-12T04:01:20.389Z,1012.51
2022-09-12T04:02:20.368Z,1012.49
2022-09-12T04:03:20.318Z,1012.50
2022-09-12T04:04:20.318Z,1012.52
2022-09-12T04:05:20.304Z,1012.48
2022-09-12T04:06:20.259Z,1012.49
2022-09-12T04:07:20.244Z,1012.47
2022-09-12T04:08:20.219Z,1012.44
2022-09-12T04:09:20.202Z,1012.48
2022-09-12T04:10:20.206Z,1012.43
2022-09-12T04:11:20.163Z,1012.43
2022-09-12T04:12:20.159Z,1012.43
2022-09-12T04:13:20.127Z,1012.43
2022-09-12T04:14:20.099Z,1012.42
2022-09-12T04:15:20.099Z,1012.41
2022-09-12T04:16:20.107Z,1012.41
2022-09-12T04:17:20.058Z,1012.41
2022-09-12T04:18:20.029Z,1012.41
2022-09-12T04:19:20.016Z,1012.43
2022-09-12T04:20:19.993Z,1012.39
2022-09-12T04:21:19.963Z,1012.39
2022-09-12T04:22:19.971Z,1012.40
2022-09-12T04:23:19.929Z,1012.38
2022-09-12T04:24:19.909Z,1012.39
2022-09-12T04:25:19.891Z,1012.41
2022-09-12T04:26:19.869Z,1012.39
2022-09-12T04:27:19.865Z,1012.44
2022-09-12T04:28:19.834Z,1012.38
2022-09-12T04:29:19.808Z,1012.36
2022-09-12T04:30:19.793Z,1012.40
2022-09-12T04:31:19.789Z,1012.37
2022-09-12T04:32:19.766Z,1012.39
2022-09-12T04:33:19.736Z,1012.40
2022-09-12T04:34:19.712Z,1012.39
2022-09-12T04:35:19.688Z,1012.34
2022-09-12T04:36:19.695Z,1012.38
2022-09-12T04:37:19.655Z,1012.36
2022-09-12T04:38:19.634Z,1012.33
2022-09-12T04:39:19.618Z,1012.31
2022-09-12T04:40:19.598Z,1012.35
2022-09-12T04:41:19.591Z,1012.33
2022-09-12T04:42:19.568Z,1012.31
2022-09-12T04:43:19.534Z,1012.34
2022-09-12T04:44:19.520Z,1012.31
2022-09-12T04:45:19.501Z,1012.31
2022-09-12T04:46:19.495Z,1012.33
2022-09-12T04:47:19.474Z,1012.32
2022-09-12T04:48:19.435Z,1012.29
2022-09-12T04:49:19.508Z,1012.30
2022-09-12T04:50:19.411Z,1012.27
2022-09-12T04:51:19.381Z,1012.27
2022-09-12T04:52:19.359Z,1012.23
2022-09-12T04:53:19.345Z,1012.26
2022-09-12T04:54:19.426Z,1012.25
2022-09-12T04:55:19.303Z,1012.24
2022-09-12T04:56:19.287Z,1012.23
2022-09-12T04:57:19.284Z,1012.22
2022-09-12T04:58:19.274Z,1012.19
2022-09-12T04:59:19.222Z,1012.21
2022-09-12T05:00:19.199Z,1012.20
2022-09-12T05:01:19.245Z,1012.18
2022-09-12T05:02:19.231Z,1012.21
2022-09-12T05:03:19.148Z,1012.20
2022-09-12T05:04:19.132Z,1012.20
2022-09-12T05:05:19.109Z,1012.17
2022-09-12T05:06:19.084Z,1012.19
2022-09-12T05:07:19.082Z,1012.16
2022-09-12T05:08:19.043Z,1012.19
2022-09-12T05:09:19.053Z,1012.16
2022-09-12T05:10:19.004Z,1012.18
2022-09-12T05:11:24.098Z,1012.19
2022-09-12T05:12:18.966Z,1012.17
2022-09-12T05:13:18.944Z,1012.21
2022-09-12T05:14:18.925Z,1012.16
2022-09-12T05:15:18.931Z,1012.17
2022-09-12T05:16:19.001Z,1012.16
2022-09-12T05:17:18.864Z,1012.16
2022-09-12T05:18:18.854Z,1012.16
2022-09-12T05:19:18.853Z,1012.14
2022-09-12T05:20:18.809Z,1012.15
2022-09-12T05:21:18.784Z,1012.14
2022-09-12T05:22:18.773Z,1012.18
2022-09-12T05:23:18.750Z,1012.17
2022-09-12T05:24:18.727Z,1012.17
2022-09-12T05:25:18.735Z,1012.17
2022-09-12T05:26:18.716Z,1012.14
2022-09-12T05:27:18.671Z,1012.15
2022-09-12T05:28:18.659Z,1012.19
2022-09-12T05:29:18.631Z,1012.21
2022-09-12T05:30:18.633Z,1012.22
2022-09-12T05:31:18.593Z,1012.24
2022-09-12T05:32:18.575Z,1012.22
2022-09-12T05:33:20.965Z,1012.25
2022-09-12T05:34:18.546Z,1012.23
2022-09-12T05:35:18.529Z,1012.21
2022-09-12T05:36:18.501Z,1012.17
2022-09-12T05:37:18.470Z,1012.20
2022-09-12T05:38:18.454Z,1012.17
2022-09-12T05:39:18.448Z,1012.18
2022-09-12T05:40:18.415Z,1012.15
2022-09-12T05:41:21.951Z,1012.13
2022-09-12T05:42:18.377Z,1012.13
2022-09-12T05:43:18.356Z,1012.14
2022-09-12T05:44:18.354Z,1012.13
2022-09-12T05:45:18.323Z,1012.15
2022-09-12T05:46:18.295Z,1012.16
2022-09-12T05:47:18.276Z,1012.19
2022-09-12T05:48:18.264Z,1012.18
2022-09-12T05:49:18.253Z,1012.19
2022-09-12T05:50:18.220Z,1012.21
2022-09-12T05:51:18.199Z,1012.18
2022-09-12T05:52:18.184Z,1012.19
2022-09-12T05:53:18.157Z,1012.25
2022-09-12T05:54:18.164Z,1012.25
2022-09-12T05:55:18.120Z,1012.30
2022-09-12T05:56:18.123Z,1012.32
2022-09-12T05:57:18.104Z,1012.33
2022-09-12T05:58:18.067Z,1012.37
2022-09-12T05:59:18.046Z,1012.38
2022-09-12T06:00:18.054Z,1012.36
2022-09-12T06:01:18.149Z,1012.40
2022-09-12T06:02:18.019Z,1012.39
2022-09-12T06:03:17.972Z,1012.41
2022-09-12T06:04:17.950Z,1012.42
2022-09-12T06:05:17.929Z,1012.47
2022-09-12T06:06:17.919Z,1012.46
2022-09-12T06:07:17.913Z,1012.41
2022-09-12T06:08:17.875Z,1012.45
2022-09-12T06:09:17.858Z,1012.46
2022-09-12T06:10:17.832Z,1012.45
2022-09-12T06:11:17.813Z,1012.45
2022-09-12T06:12:17.811Z,1012.49
2022-09-12T06:13:17.770Z,1012.48
2022-09-12T06:14:17.806Z,1012.47
2022-09-12T06:15:17.734Z,1012.53
2022-09-12T06:16:17.766Z,1012.49
2022-09-12T06:17:18.651Z,1012.51
2022-09-12T06:18:17.674Z,1012.50
2022-09-12T06:19:17.667Z,1012.50
2022-09-12T06:20:17.660Z,1012.51
2022-09-12T06:21:17.629Z,1012.55
2022-09-12T06:22:17.616Z,1012.50
2022-09-12T06:23:17.583Z,1012.53
2022-09-12T06:24:17.599Z,1012.49
2022-09-12T06:25:17.557Z,1012.53
2022-09-12T06:26:17.520Z,1012.54
2022-09-12T06:27:17.506Z,1012.50
2022-09-12T06:28:17.487Z,1012.53
2022-09-12T06:29:17.477Z,1012.51
2022-09-12T06:30:17.485Z,1012.51
2022-09-12T06:31:17.431Z,1012.54
2022-09-12T06:32:17.408Z,1012.47
2022-09-12T06:33:17.401Z,1012.52
2022-09-12T06:34:17.371Z,1012.51
2022-09-12T06:35:17.370Z,1012.48
2022-09-12T06:36:17.328Z,1012.48
2022-09-12T06:37:17.312Z,1012.46
2022-09-12T06:38:17.304Z,1012.46
2022-09-12T06:39:17.308Z,1012.43
2022-09-12T06:40:17.345Z,1012.44
2022-09-12T06:41:17.247Z,1012.45
2022-09-12T06:42:17.238Z,1012.45
2022-09-12T06:43:17.214Z,1012.41
2022-09-12T06:44:17.183Z,1012.48
2022-09-12T06:45:17.183Z,1012.45
2022-09-12T06:47:59.124Z,1012.49
2022-09-12T06:48:59.088Z,1012.48
2022-09-12T06:49:59.065Z,1012.48
2022-09-12T06:50:59.044Z,1012.47
2022-09-12T06:51:59.026Z,1012.48
2022-09-12T06:52:59.028Z,1012.50
2022-09-12T06:53:58.987Z,1012.50
2022-09-12T06:54:58.973Z,1012.46
2022-09-12T06:55:58.979Z,1012.45
2022-09-12T06:56:58.955Z,1012.54
2022-09-12T06:57:58.933Z,1012.48
2022-09-12T06:58:58.908Z,1012.51
2022-09-12T06:59:58.876Z,1012.49
2022-09-12T07:00:59.193Z,1012.48
2022-09-12T07:01:58.950Z,1012.52
2022-09-12T07:02:58.819Z,1012.50
2022-09-12T07:03:58.824Z,1012.48
2022-09-12T07:04:58.785Z,1012.48
2022-09-12T07:05:58.759Z,1012.49
2022-09-12T07:06:58.746Z,1012.47
2022-09-12T07:07:58.724Z,1012.52
2022-09-12T07:08:58.723Z,1012.49
2022-09-12T07:09:58.687Z,1012.52
2022-09-12T07:10:58.671Z,1012.57
2022-09-12T07:11:58.666Z,1012.51
2022-09-12T07:12:58.635Z,1012.55
2022-09-12T07:13:58.705Z,1012.56
2022-09-12T07:14:58.792Z,1012.55
2022-09-12T07:15:58.574Z,1012.57
2022-09-12T07:16:58.583Z,1012.57
2022-09-12T07:17:58.538Z,1012.59
2022-09-12T07:18:58.521Z,1012.58
2022-09-12T07:19:58.525Z,1012.62
2022-09-12T07:20:58.485Z,1012.60
2022-09-12T07:21:58.866Z,1012.63
2022-09-12T07:22:58.440Z,1012.63
2022-09-12T07:23:58.434Z,1012.60
2022-09-12T07:24:58.423Z,1012.62
2022-09-12T07:25:58.387Z,1012.60
2022-09-12T07:26:58.470Z,1012.62
2022-09-12T07:27:58.349Z,1012.60
2022-09-12T07:29:18.670Z,1012.60
2022-09-12T07:29:58.343Z,1012.60
2022-09-12T07:30:58.316Z,1012.56
2022-09-12T07:31:58.283Z,1012.54
2022-09-12T07:32:58.255Z,1012.52
2022-09-12T07:33:58.241Z,1012.55
2022-09-12T07:34:58.222Z,1012.58
2022-09-12T07:35:58.225Z,1012.56
2022-09-12T07:36:58.185Z,1012.51
2022-09-12T07:37:58.174Z,1012.52
2022-09-12T07:38:58.148Z,1012.45
2022-09-12T07:39:58.207Z,1012.45
2022-09-12T07:40:58.110Z,1012.44
2022-09-12T07:41:58.110Z,1012.40
2022-09-12T07:42:58.084Z,1012.43
2022-09-12T07:43:58.068Z,1012.35
2022-09-12T07:44:58.035Z,1012.39
2022-09-12T07:45:58.064Z,1012.41
2022-09-12T07:46:57.996Z,1012.42
2022-09-12T07:47:57.995Z,1012.42
2022-09-12T07:48:58.045Z,1012.39
2022-09-12T07:49:58.015Z,1012.44
2022-09-12T07:50:57.942Z,1012.43
2022-09-12T07:51:57.943Z,1012.48
2022-09-12T07:52:57.882Z,1012.50
2022-09-12T07:53:57.863Z,1012.52
2022-09-12T07:54:57.852Z,1012.56
2022-09-12T07:55:57.831Z,1012.57
2022-09-12T07:56:57.842Z,1012.52
2022-09-12T07:57:58.279Z,1012.49
2022-09-12T07:58:57.776Z,1012.51
2022-09-12T07:59:57.810Z,1012.51
2022-09-12T08:00:57.739Z,1012.47
2022-09-12T08:01:57.724Z,1012.49
2022-09-12T08:02:57.751Z,1012.47
2022-09-12T08:03:58.302Z,1012.41
2022-09-12T08:04:57.689Z,1012.44
2022-09-12T08:05:57.653Z,1012.41
2022-09-12T08:06:57.647Z,1012.42
2022-09-12T08:07:57.907Z,1012.39
2022-09-12T08:08:57.605Z,1012.40
2022-09-12T08:09:57.594Z,1012.42
2022-09-12T08:10:57.571Z,1012.46
2022-09-12T08:11:57.546Z,1012.46
2022-09-12T08:12:57.522Z,1012.50
2022-09-12T08:13:57.811Z,1012.52
2022-09-12T08:14:57.517Z,1012.57
2022-09-12T08:15:57.533Z,1012.57
2022-09-12T08:16:57.457Z,1012.58
2022-09-12T08:17:57.431Z,1012.60
2022-09-12T08:18:57.418Z,1012.63
2022-09-12T08:19:57.402Z,1012.60
2022-09-12T08:20:57.383Z,1012.67
2022-09-12T08:21:57.352Z,1012.63
2022-09-12T08:22:57.358Z,1012.61
2022-09-12T08:23:57.319Z,1012.60
2022-09-12T08:24:57.299Z,1012.59
2022-09-12T08:25:57.283Z,1012.58
2022-09-12T08:26:57.262Z,1012.58
2022-09-12T08:27:57.270Z,1012.57
2022-09-12T08:28:57.224Z,1012.55
2022-09-12T08:29:57.213Z,1012.57
2022-09-12T08:30:57.231Z,1012.55
2022-09-12T08:31:57.522Z,1012.58
2022-09-12T08:32:57.179Z,1012.54
2022-09-12T08:33:57.130Z,1012.55
2022-09-12T08:34:57.116Z,1012.55
2022-09-12T08:35:57.109Z,1012.55
2022-09-12T08:36:57.079Z,1012.56
2022-09-12T08:37:57.082Z,1012.52
2022-09-12T08:38:59.607Z,1012.55
2022-09-12T08:39:57.161Z,1012.50
2022-09-12T08:40:57.030Z,1012.50
2022-09-12T08:41:57.076Z,1012.51
2022-09-12T08:42:56.972Z,1012.51
2022-09-12T08:43:57.224Z,1012.49
2022-09-12T08:44:56.934Z,1012.51
2022-09-12T08:45:56.998Z,1012.51
2022-09-12T08:46:56.902Z,1012.50
2022-09-12T08:47:56.882Z,1012.52
2022-09-12T08:48:56.888Z,1012.46
2022-09-12T08:49:56.853Z,1012.48
2022-09-12T08:50:56.825Z,1012.52
2022-09-12T08:51:56.838Z,1012.48
2022-09-12T08:52:56.793Z,1012.48
2022-09-12T08:53:56.812Z,1012.48
2022-09-12T08:54:56.758Z,1012.47
2022-09-12T08:55:56.742Z,1012.44
2022-09-12T08:56:56.725Z,1012.46
2022-09-12T08:57:56.721Z,1012.45
2022-09-12T08:58:56.688Z,1012.48
2022-09-12T08:59:56.672Z,1012.41
2022-09-12T09:00:56.654Z,1012.45
2022-09-12T09:01:56.659Z,1012.47
2022-09-12T09:02:56.713Z,1012.44
2022-09-12T09:03:56.614Z,1012.41
2022-09-12T09:06:38.664Z,1012.39
2022-09-12T09:07:38.631Z,1012.40
2022-09-12T09:08:38.634Z,1012.37
2022-09-12T09:09:38.614Z,1012.40
2022-09-12T09:10:38.579Z,1012.39
2022-09-12T09:11:38.559Z,1012.42
2022-09-12T09:12:38.541Z,1012.38
2022-09-12T09:13:38.527Z,1012.40
2022-09-12T09:14:38.525Z,1012.37
2022-09-12T09:15:38.522Z,1012.38
2022-09-12T09:16:38.480Z,1012.41
2022-09-12T09:17:38.493Z,1012.44
2022-09-12T09:18:38.441Z,1012.45
2022-09-12T09:19:38.446Z,1012.42
2022-09-12T09:20:38.419Z,1012.42
2022-09-12T09:21:38.390Z,1012.36
2022-09-12T09:22:38.377Z,1012.39
2022-09-12T09:23:38.358Z,1012.38
2022-09-12T09:24:38.367Z,1012.34
2022-09-12T09:25:38.367Z,1012.34
2022-09-12T09:26:38.310Z,1012.36
2022-09-12T09:27:41.275Z,1012.32
2022-09-12T09:28:38.290Z,1012.36
2022-09-12T09:29:38.268Z,1012.36
2022-09-12T09:30:38.339Z,1012.32
2022-09-12T09:31:38.226Z,1012.37
2022-09-12T09:32:38.216Z,1012.32
2022-09-12T09:33:38.195Z,1012.32
2022-09-12T09:34:38.185Z,1012.32
2022-09-12T09:35:38.190Z,1012.31
2022-09-12T09:36:38.158Z,1012.29
2022-09-12T09:37:38.134Z,1012.31
2022-09-12T09:38:38.133Z,1012.30
2022-09-12T09:39:38.184Z,1012.31
2022-09-12T09:40:38.107Z,1012.30
2022-09-12T09:41:38.093Z,1012.27
2022-09-12T09:42:38.054Z,1012.25
2022-09-12T09:43:38.038Z,1012.29
2022-09-12T09:44:38.023Z,1012.30
2022-09-12T09:45:38.009Z,1012.29
2022-09-12T09:46:38.084Z,1012.32
2022-09-12T09:47:37.982Z,1012.31
2022-09-12T09:48:37.974Z,1012.33
2022-09-12T09:49:37.958Z,1012.33
2022-09-12T09:50:37.962Z,1012.33
2022-09-12T09:51:37.926Z,1012.33
2022-09-12T09:52:37.914Z,1012.32
2022-09-12T09:53:37.894Z,1012.29
2022-09-12T09:54:37.888Z,1012.25
2022-09-12T09:55:37.900Z,1012.26
2022-09-12T09:56:37.877Z,1012.22
2022-09-12T09:57:37.846Z,1012.21
2022-09-12T09:58:37.838Z,1012.14
2022-09-12T09:59:37.815Z,1012.17
2022-09-12T10:00:37.828Z,1012.14
2022-09-12T10:01:37.849Z,1012.11
2022-09-12T10:02:37.832Z,1012.11
2022-09-12T10:03:37.769Z,1012.07
2022-09-12T10:04:41.235Z,1012.08
2022-09-12T10:05:37.763Z,1012.05
2022-09-12T10:06:37.744Z,1012.01
2022-09-12T10:07:37.751Z,1011.99
2022-09-12T10:08:37.713Z,1011.97
2022-09-12T10:09:37.703Z,1011.98
2022-09-12T10:10:37.689Z,1012.00
2022-09-12T10:11:37.677Z,1012.00
2022-09-12T10:12:37.683Z,1011.98
2022-09-12T10:13:37.654Z,1011.97
2022-09-12T10:14:37.644Z,1011.93
2022-09-12T10:15:37.658Z,1011.95
2022-09-12T10:16:37.619Z,1011.92
2022-09-12T10:17:37.629Z,1011.88
2022-09-12T10:18:37.600Z,1011.90
2022-09-12T10:19:37.606Z,1011.84
2022-09-12T10:20:37.592Z,1011.83
2022-09-12T10:21:40.978Z,1011.86
2022-09-12T10:22:37.550Z,1011.83
2022-09-12T10:23:37.552Z,1011.85
2022-09-12T10:24:37.530Z,1011.85
2022-09-12T10:25:37.555Z,1011.83
2022-09-12T10:26:37.523Z,1011.81
2022-09-12T10:27:37.501Z,1011.79
2022-09-12T10:28:37.492Z,1011.74
2022-09-12T10:29:37.498Z,1011.76
2022-09-12T10:30:37.479Z,1011.73
2022-09-12T10:31:37.460Z,1011.72
2022-09-12T10:32:37.455Z,1011.68
2022-09-12T10:33:37.440Z,1011.68
2022-09-12T10:34:37.427Z,1011.65
2022-09-12T10:35:37.432Z,1011.67
2022-09-12T10:36:37.408Z,1011.64
2022-09-12T10:37:37.403Z,1011.64
2022-09-12T10:38:37.387Z,1011.61
2022-09-12T10:39:37.558Z,1011.60
2022-09-12T10:40:37.367Z,1011.66
2022-09-12T10:41:37.378Z,1011.56
2022-09-12T10:42:37.356Z,1011.54
2022-09-12T10:43:37.356Z,1011.51
2022-09-12T10:44:37.329Z,1011.52
2022-09-12T10:45:37.339Z,1011.51
2022-09-12T10:46:37.336Z,1011.44
2022-09-12T10:47:37.299Z,1011.49
2022-09-12T10:48:37.291Z,1011.42
2022-09-12T10:49:37.286Z,1011.45
2022-09-12T10:50:37.285Z,1011.42
2022-09-12T10:51:37.260Z,1011.42
2022-09-12T10:52:37.270Z,1011.37
2022-09-12T10:53:37.244Z,1011.37
2022-09-12T10:54:37.241Z,1011.40
2022-09-12T10:55:37.228Z,1011.42
2022-09-12T10:56:37.213Z,1011.45
2022-09-12T10:57:37.218Z,1011.41
2022-09-12T10:58:37.197Z,1011.39
2022-09-12T10:59:37.179Z,1011.42
2022-09-12T11:00:37.176Z,1011.41
2022-09-12T11:01:37.223Z,1011.42
2022-09-12T11:02:37.220Z,1011.39
2022-09-12T11:03:37.165Z,1011.38
2022-09-12T11:04:37.135Z,1011.33
2022-09-12T11:05:37.135Z,1011.30
2022-09-12T11:06:37.120Z,1011.35
2022-09-12T11:07:37.109Z,1011.31
2022-09-12T11:08:37.119Z,1011.25
2022-09-12T11:09:37.110Z,1011.29
2022-09-12T11:10:40.461Z,1011.26
2022-09-12T11:11:37.153Z,1011.26
2022-09-12T11:12:37.063Z,1011.29
2022-09-12T11:13:37.105Z,1011.24
2022-09-12T11:14:37.066Z,1011.22
2022-09-12T11:15:37.071Z,1011.21
2022-09-12T11:16:37.022Z,1011.22
2022-09-12T11:17:37.011Z,1011.16
2022-09-12T11:18:37.008Z,1011.14
2022-09-12T11:19:37.012Z,1011.14
2022-09-12T11:20:36.980Z,1011.16
2022-09-12T11:21:36.975Z,1011.17
2022-09-12T11:22:36.962Z,1011.17
2022-09-12T11:23:36.951Z,1011.16
2022-09-12T11:24:36.943Z,1011.14
2022-09-12T11:25:36.974Z,1011.12
2022-09-12T11:26:36.929Z,1011.08
2022-09-12T11:27:36.921Z,1011.09
2022-09-12T11:28:36.905Z,1011.12
2022-09-12T11:29:36.892Z,1011.04
2022-09-12T11:30:36.908Z,1011.07
2022-09-12T11:31:36.892Z,1011.03
2022-09-12T11:32:36.866Z,1011.07
2022-09-12T11:33:40.855Z,1011.12
2022-09-12T11:34:36.845Z,1011.07
2022-09-12T11:35:36.859Z,1011.01
2022-09-12T11:36:36.831Z,1011.07
2022-09-12T11:37:36.846Z,1011.06
2022-09-12T11:38:36.802Z,1011.12
2022-09-12T11:41:18.731Z,1011.04
2022-09-12T11:42:18.722Z,1011.04
2022-09-12T11:43:18.692Z,1011.04
2022-09-12T11:44:18.683Z,1011.04
2022-09-12T11:45:18.680Z,1011.09
2022-09-12T11:46:18.681Z,1011.09
2022-09-12T11:47:18.657Z,1011.10
2022-09-12T11:48:18.658Z,1011.00
2022-09-12T11:49:18.643Z,1011.04
2022-09-12T11:50:18.626Z,1011.03
2022-09-12T11:51:18.617Z,1011.03
2022-09-12T11:52:18.603Z,1011.05
2022-09-12T11:53:18.593Z,1011.03
2022-09-12T11:54:18.594Z,1010.97
2022-09-12T11:55:18.573Z,1010.96
2022-09-12T11:56:18.554Z,1010.96
2022-09-12T11:57:18.551Z,1010.98
2022-09-12T11:58:18.540Z,1010.96
2022-09-12T11:59:18.555Z,1010.99
2022-09-12T12:00:18.527Z,1010.98
2022-09-12T12:01:18.511Z,1010.97
2022-09-12T12:02:18.528Z,1010.97
2022-09-12T12:03:18.518Z,1011.03
2022-09-12T12:04:18.470Z,1010.99
2022-09-12T12:05:18.494Z,1010.94
2022-09-12T12:06:18.453Z,1010.96
2022-09-12T12:07:18.455Z,1010.94
2022-09-12T12:08:18.436Z,1010.90
2022-09-12T12:09:18.425Z,1010.95
2022-09-12T12:10:18.434Z,1010.83